sensor_id;sensor_type;location;lat;lon;timestamp;P1;durP1;ratioP1;P2;durP2;ratioP2
3000;SDS011;1510;51.072;6.678;2023-03-14T00:00:50;12.80;;;2.30;;
3000;SDS011;1510;51.072;6.678;2023-03-14T00:03:22;11.03;;;2.27;;
3000;SDS011;1510;51.072;6.678;2023-03-14T00:05:49;11.53;;;2.33;;
3000;SDS011;1510;51.072;6.678;2023-03-14T00:08:18;9.20;;;1.90;;
3000;SDS011;1510;51.072;6.678;2023-03-14T00:10:46;13.30;;;3.30;;
3000;SDS011;1510;51.072;6.678;2023-03-14T00:13:13;8.27;;;1.90;;
3000;SDS011;1510;51.072;6.678;2023-03-14T00:15:40;8.40;;;2.00;;
3000;SDS011;1510;51.072;6.678;2023-03-14T00:18:08;8.57;;;2.10;;
3000;SDS011;1510;51.072;6.678;2023-03-14T00:20:35;8.90;;;3.07;;
3000;SDS011;1510;51.072;6.678;2023-03-14T00:23:02;7.97;;;1.70;;
3000;SDS011;1510;51.072;6.678;2023-03-14T00:25:31;11.10;;;2.30;;
3000;SDS011;1510;51.072;6.678;2023-03-14T00:27:58;13.83;;;2.47;;
3000;SDS011;1510;51.072;6.678;2023-03-14T00:30:27;11.00;;;2.00;;
3000;SDS011;1510;51.072;6.678;2023-03-14T00:32:55;5.23;;;1.80;;
3000;SDS011;1510;51.072;6.678;2023-03-14T00:35:22;4.83;;;1.17;;
3000;SDS011;1510;51.072;6.678;2023-03-14T00:37:49;4.93;;;1.80;;
3000;SDS011;1510;51.072;6.678;2023-03-14T00:40:18;5.83;;;1.00;;
3000;SDS011;1510;51.072;6.678;2023-03-14T00:42:49;6.07;;;1.40;;
3000;SDS011;1510;51.072;6.678;2023-03-14T00:45:20;5.80;;;2.07;;
3000;SDS011;1510;51.072;6.678;2023-03-14T00:47:50;8.87;;;6.27;;
3000;SDS011;1510;51.072;6.678;2023-03-14T00:50:20;32.77;;;31.23;;
3000;SDS011;1510;51.072;6.678;2023-03-14T00:52:49;115.30;;;111.03;;
3000;SDS011;1510;51.072;6.678;2023-03-14T00:55:19;205.73;;;199.27;;
3000;SDS011;1510;51.072;6.678;2023-03-14T00:57:50;288.03;;;278.40;;
3000;SDS011;1510;51.072;6.678;2023-03-14T01:00:18;399.97;;;385.33;;
3000;SDS011;1510;51.072;6.678;2023-03-14T01:02:46;498.43;;;476.43;;
3000;SDS011;1510;51.072;6.678;2023-03-14T01:05:13;568.90;;;538.93;;
3000;SDS011;1510;51.072;6.678;2023-03-14T01:07:40;597.50;;;560.90;;
3000;SDS011;1510;51.072;6.678;2023-03-14T01:10:10;588.00;;;552.00;;
3000;SDS011;1510;51.072;6.678;2023-03-14T01:12:45;558.57;;;526.07;;
3000;SDS011;1510;51.072;6.678;2023-03-14T01:15:15;571.93;;;537.17;;
3000;SDS011;1510;51.072;6.678;2023-03-14T01:17:42;575.23;;;540.00;;
3000;SDS011;1510;51.072;6.678;2023-03-14T01:20:11;577.27;;;541.07;;
3000;SDS011;1510;51.072;6.678;2023-03-14T01:22:42;555.37;;;522.40;;
3000;SDS011;1510;51.072;6.678;2023-03-14T01:25:10;556.93;;;524.10;;
3000;SDS011;1510;51.072;6.678;2023-03-14T01:27:41;555.40;;;521.93;;
3000;SDS011;1510;51.072;6.678;2023-03-14T01:30:08;531.40;;;500.80;;
3000;SDS011;1510;51.072;6.678;2023-03-14T01:32:40;520.37;;;491.50;;
3000;SDS011;1510;51.072;6.678;2023-03-14T01:35:10;521.60;;;491.93;;
3000;SDS011;1510;51.072;6.678;2023-03-14T01:37:38;428.40;;;409.57;;
3000;SDS011;1510;51.072;6.678;2023-03-14T01:40:05;426.13;;;406.87;;
3000;SDS011;1510;51.072;6.678;2023-03-14T01:42:34;417.03;;;397.97;;
3000;SDS011;1510;51.072;6.678;2023-03-14T01:45:01;412.87;;;394.63;;
3000;SDS011;1510;51.072;6.678;2023-03-14T01:47:28;404.93;;;387.30;;
3000;SDS011;1510;51.072;6.678;2023-03-14T01:49:58;377.20;;;361.40;;
3000;SDS011;1510;51.072;6.678;2023-03-14T01:52:29;376.20;;;360.57;;
3000;SDS011;1510;51.072;6.678;2023-03-14T01:55:01;366.83;;;352.83;;
3000;SDS011;1510;51.072;6.678;2023-03-14T01:57:32;400.80;;;384.43;;
3000;SDS011;1510;51.072;6.678;2023-03-14T02:00:04;407.87;;;392.43;;
3000;SDS011;1510;51.072;6.678;2023-03-14T02:02:36;447.43;;;429.40;;
3000;SDS011;1510;51.072;6.678;2023-03-14T02:05:12;482.10;;;460.93;;
3000;SDS011;1510;51.072;6.678;2023-03-14T02:07:43;482.83;;;462.13;;
3000;SDS011;1510;51.072;6.678;2023-03-14T02:10:15;437.13;;;419.63;;
3000;SDS011;1510;51.072;6.678;2023-03-14T02:12:48;334.43;;;322.73;;
3000;SDS011;1510;51.072;6.678;2023-03-14T02:15:22;344.93;;;332.77;;
3000;SDS011;1510;51.072;6.678;2023-03-14T02:17:49;323.97;;;313.10;;
3000;SDS011;1510;51.072;6.678;2023-03-14T02:20:22;316.30;;;305.40;;
3000;SDS011;1510;51.072;6.678;2023-03-14T02:22:54;363.87;;;350.47;;
3000;SDS011;1510;51.072;6.678;2023-03-14T02:25:23;356.83;;;343.97;;
3000;SDS011;1510;51.072;6.678;2023-03-14T02:27:55;403.17;;;388.00;;
3000;SDS011;1510;51.072;6.678;2023-03-14T02:30:24;447.90;;;429.57;;
3000;SDS011;1510;51.072;6.678;2023-03-14T02:32:53;429.73;;;412.53;;
3000;SDS011;1510;51.072;6.678;2023-03-14T03:01:22;324.57;;;313.30;;
3000;SDS011;1510;51.072;6.678;2023-03-14T03:03:49;355.50;;;342.33;;
3000;SDS011;1510;51.072;6.678;2023-03-14T03:06:16;356.10;;;343.60;;
3000;SDS011;1510;51.072;6.678;2023-03-14T03:08:43;335.83;;;323.83;;
3000;SDS011;1510;51.072;6.678;2023-03-14T03:29:21;525.23;;;499.53;;
3000;SDS011;1510;51.072;6.678;2023-03-14T04:29:00;496.57;;;474.47;;
3000;SDS011;1510;51.072;6.678;2023-03-14T04:31:31;514.17;;;490.07;;
3000;SDS011;1510;51.072;6.678;2023-03-14T04:34:01;574.63;;;542.90;;
3000;SDS011;1510;51.072;6.678;2023-03-14T04:36:33;510.73;;;487.47;;
3000;SDS011;1510;51.072;6.678;2023-03-14T04:39:04;442.53;;;424.47;;
3000;SDS011;1510;51.072;6.678;2023-03-14T04:41:32;444.10;;;426.73;;
3000;SDS011;1510;51.072;6.678;2023-03-14T04:44:03;421.80;;;406.00;;
3000;SDS011;1510;51.072;6.678;2023-03-14T05:08:28;428.07;;;411.27;;
3000;SDS011;1510;51.072;6.678;2023-03-14T05:10:56;418.10;;;401.60;;
3000;SDS011;1510;51.072;6.678;2023-03-14T05:13:23;433.77;;;416.20;;
3000;SDS011;1510;51.072;6.678;2023-03-14T05:15:51;455.73;;;436.93;;
3000;SDS011;1510;51.072;6.678;2023-03-14T05:18:20;395.77;;;380.70;;
3000;SDS011;1510;51.072;6.678;2023-03-14T05:20:47;414.83;;;398.17;;
3000;SDS011;1510;51.072;6.678;2023-03-14T05:23:18;418.30;;;401.50;;
3000;SDS011;1510;51.072;6.678;2023-03-14T05:25:49;394.23;;;378.50;;
3000;SDS011;1510;51.072;6.678;2023-03-14T05:28:32;414.03;;;397.60;;
3000;SDS011;1510;51.072;6.678;2023-03-14T06:08:21;423.37;;;405.97;;
3000;SDS011;1510;51.072;6.678;2023-03-14T06:10:51;375.80;;;360.97;;
3000;SDS011;1510;51.072;6.678;2023-03-14T06:13:20;369.93;;;355.13;;
3000;SDS011;1510;51.072;6.678;2023-03-14T06:15:50;354.87;;;340.67;;
3000;SDS011;1510;51.072;6.678;2023-03-14T06:18:19;267.57;;;257.83;;
3000;SDS011;1510;51.072;6.678;2023-03-14T06:20:46;288.27;;;277.80;;
3000;SDS011;1510;51.072;6.678;2023-03-14T06:23:15;291.23;;;280.70;;
3000;SDS011;1510;51.072;6.678;2023-03-14T06:25:44;286.43;;;275.93;;
3000;SDS011;1510;51.072;6.678;2023-03-14T06:28:11;269.50;;;259.90;;
3000;SDS011;1510;51.072;6.678;2023-03-14T06:30:41;258.93;;;249.77;;
3000;SDS011;1510;51.072;6.678;2023-03-14T06:33:10;282.10;;;272.00;;
3000;SDS011;1510;51.072;6.678;2023-03-14T06:35:38;274.40;;;264.50;;
3000;SDS011;1510;51.072;6.678;2023-03-14T06:38:05;256.67;;;247.57;;
3000;SDS011;1510;51.072;6.678;2023-03-14T06:40:33;243.37;;;235.07;;
3000;SDS011;1510;51.072;6.678;2023-03-14T06:43:02;243.13;;;234.83;;
3000;SDS011;1510;51.072;6.678;2023-03-14T06:45:29;188.17;;;181.87;;
3000;SDS011;1510;51.072;6.678;2023-03-14T06:47:55;161.30;;;155.90;;
3000;SDS011;1510;51.072;6.678;2023-03-14T06:50:25;145.37;;;140.57;;
3000;SDS011;1510;51.072;6.678;2023-03-14T06:52:52;153.77;;;148.67;;
3000;SDS011;1510;51.072;6.678;2023-03-14T06:55:20;141.47;;;136.83;;
3000;SDS011;1510;51.072;6.678;2023-03-14T07:02:58;159.20;;;154.00;;
3000;SDS011;1510;51.072;6.678;2023-03-14T07:05:26;149.77;;;144.87;;
3000;SDS011;1510;51.072;6.678;2023-03-14T07:07:53;149.07;;;144.20;;
3000;SDS011;1510;51.072;6.678;2023-03-14T07:10:21;152.80;;;147.77;;
3000;SDS011;1510;51.072;6.678;2023-03-14T07:12:49;157.00;;;151.80;;
3000;SDS011;1510;51.072;6.678;2023-03-14T07:15:17;168.57;;;163.07;;
3000;SDS011;1510;51.072;6.678;2023-03-14T07:17:45;144.67;;;139.93;;
3000;SDS011;1510;51.072;6.678;2023-03-14T07:20:18;182.43;;;176.50;;
3000;SDS011;1510;51.072;6.678;2023-03-14T07:22:50;170.50;;;164.90;;
3000;SDS011;1510;51.072;6.678;2023-03-14T07:25:20;166.30;;;160.80;;
3000;SDS011;1510;51.072;6.678;2023-03-14T07:27:47;118.07;;;114.20;;
3000;SDS011;1510;51.072;6.678;2023-03-14T07:30:14;126.40;;;122.27;;
3000;SDS011;1510;51.072;6.678;2023-03-14T07:32:43;103.53;;;100.03;;
3000;SDS011;1510;51.072;6.678;2023-03-14T07:35:10;84.23;;;81.33;;
3000;SDS011;1510;51.072;6.678;2023-03-14T07:37:42;61.20;;;59.00;;
3000;SDS011;1510;51.072;6.678;2023-03-14T07:40:09;60.53;;;57.77;;
3000;SDS011;1510;51.072;6.678;2023-03-14T07:42:41;56.40;;;54.30;;
3000;SDS011;1510;51.072;6.678;2023-03-14T07:45:09;50.73;;;48.83;;
3000;SDS011;1510;51.072;6.678;2023-03-14T07:47:37;48.03;;;46.23;;
3000;SDS011;1510;51.072;6.678;2023-03-14T07:50:04;39.13;;;37.63;;
3000;SDS011;1510;51.072;6.678;2023-03-14T07:52:32;41.67;;;40.07;;
3000;SDS011;1510;51.072;6.678;2023-03-14T07:55:03;39.90;;;38.27;;
3000;SDS011;1510;51.072;6.678;2023-03-14T07:57:31;37.70;;;36.10;;
3000;SDS011;1510;51.072;6.678;2023-03-14T07:59:58;32.60;;;31.30;;
3000;SDS011;1510;51.072;6.678;2023-03-14T08:02:25;36.40;;;34.90;;
3000;SDS011;1510;51.072;6.678;2023-03-14T08:04:52;31.83;;;30.53;;
3000;SDS011;1510;51.072;6.678;2023-03-14T08:07:20;14.13;;;13.43;;
3000;SDS011;1510;51.072;6.678;2023-03-14T08:09:47;12.10;;;11.40;;
3000;SDS011;1510;51.072;6.678;2023-03-14T08:12:20;7.43;;;6.93;;
3000;SDS011;1510;51.072;6.678;2023-03-14T08:14:48;5.43;;;4.93;;
3000;SDS011;1510;51.072;6.678;2023-03-14T08:17:15;6.50;;;3.90;;
3000;SDS011;1510;51.072;6.678;2023-03-14T08:19:42;3.70;;;3.10;;
3000;SDS011;1510;51.072;6.678;2023-03-14T08:22:12;4.60;;;3.87;;
3000;SDS011;1510;51.072;6.678;2023-03-14T08:24:41;4.90;;;4.50;;
3000;SDS011;1510;51.072;6.678;2023-03-14T08:27:08;5.83;;;5.43;;
3000;SDS011;1510;51.072;6.678;2023-03-14T08:29:44;7.40;;;6.80;;
3000;SDS011;1510;51.072;6.678;2023-03-14T08:32:15;7.37;;;6.77;;
3000;SDS011;1510;51.072;6.678;2023-03-14T08:34:42;7.07;;;6.40;;
3000;SDS011;1510;51.072;6.678;2023-03-14T08:37:09;4.70;;;4.20;;
3000;SDS011;1510;51.072;6.678;2023-03-14T08:39:36;5.63;;;5.13;;
3000;SDS011;1510;51.072;6.678;2023-03-14T08:42:07;4.50;;;4.10;;
3000;SDS011;1510;51.072;6.678;2023-03-14T08:44:34;3.93;;;3.20;;
3000;SDS011;1510;51.072;6.678;2023-03-14T08:47:04;4.30;;;3.90;;
3000;SDS011;1510;51.072;6.678;2023-03-14T08:49:33;6.43;;;5.93;;
3000;SDS011;1510;51.072;6.678;2023-03-14T08:52:09;15.37;;;14.47;;
3000;SDS011;1510;51.072;6.678;2023-03-14T08:54:36;44.63;;;42.87;;
3000;SDS011;1510;51.072;6.678;2023-03-14T08:57:09;92.60;;;89.33;;
3000;SDS011;1510;51.072;6.678;2023-03-14T08:59:38;138.47;;;133.97;;
3000;SDS011;1510;51.072;6.678;2023-03-14T09:02:08;198.37;;;191.77;;
3000;SDS011;1510;51.072;6.678;2023-03-14T09:04:36;268.33;;;259.37;;
3000;SDS011;1510;51.072;6.678;2023-03-14T09:07:04;270.40;;;261.50;;
3000;SDS011;1510;51.072;6.678;2023-03-14T09:09:34;234.40;;;227.03;;
3000;SDS011;1510;51.072;6.678;2023-03-14T09:12:05;265.10;;;256.63;;
3000;SDS011;1510;51.072;6.678;2023-03-14T09:14:32;232.27;;;224.87;;
3000;SDS011;1510;51.072;6.678;2023-03-14T09:17:09;129.90;;;125.57;;
3000;SDS011;1510;51.072;6.678;2023-03-14T09:19:36;62.17;;;59.90;;
3000;SDS011;1510;51.072;6.678;2023-03-14T09:22:06;36.83;;;35.33;;
3000;SDS011;1510;51.072;6.678;2023-03-14T09:24:32;53.77;;;51.77;;
3000;SDS011;1510;51.072;6.678;2023-03-14T09:27:00;16.47;;;15.63;;
3000;SDS011;1510;51.072;6.678;2023-03-14T09:29:35;20.00;;;19.10;;
3000;SDS011;1510;51.072;6.678;2023-03-14T09:32:16;56.70;;;54.63;;
3000;SDS011;1510;51.072;6.678;2023-03-14T09:34:43;88.73;;;85.63;;
3000;SDS011;1510;51.072;6.678;2023-03-14T09:37:13;207.03;;;199.67;;
3000;SDS011;1510;51.072;6.678;2023-03-14T09:39:41;292.07;;;280.97;;
3000;SDS011;1510;51.072;6.678;2023-03-14T09:42:14;197.80;;;191.00;;
3000;SDS011;1510;51.072;6.678;2023-03-14T09:44:53;375.17;;;360.20;;
3000;SDS011;1510;51.072;6.678;2023-03-14T09:47:28;279.30;;;269.00;;
3000;SDS011;1510;51.072;6.678;2023-03-14T09:49:56;311.17;;;299.17;;
3000;SDS011;1510;51.072;6.678;2023-03-14T09:52:26;426.97;;;408.17;;
3000;SDS011;1510;51.072;6.678;2023-03-14T09:54:58;242.30;;;232.60;;
3000;SDS011;1510;51.072;6.678;2023-03-14T09:57:32;230.97;;;222.17;;
3000;SDS011;1510;51.072;6.678;2023-03-14T10:00:06;178.60;;;171.90;;
3000;SDS011;1510;51.072;6.678;2023-03-14T10:02:47;221.97;;;213.30;;
3000;SDS011;1510;51.072;6.678;2023-03-14T10:05:21;349.60;;;335.80;;
3000;SDS011;1510;51.072;6.678;2023-03-14T10:07:53;322.73;;;309.33;;
3000;SDS011;1510;51.072;6.678;2023-03-14T10:10:24;205.57;;;198.07;;
3000;SDS011;1510;51.072;6.678;2023-03-14T10:12:54;192.13;;;185.23;;
3000;SDS011;1510;51.072;6.678;2023-03-14T10:15:24;248.43;;;239.63;;
3000;SDS011;1510;51.072;6.678;2023-03-14T10:17:58;189.37;;;182.63;;
3000;SDS011;1510;51.072;6.678;2023-03-14T10:20:32;166.50;;;160.77;;
3000;SDS011;1510;51.072;6.678;2023-03-14T10:23:03;194.40;;;187.70;;
3000;SDS011;1510;51.072;6.678;2023-03-14T10:25:32;193.50;;;186.10;;
3000;SDS011;1510;51.072;6.678;2023-03-14T10:28:03;222.63;;;214.43;;
3000;SDS011;1510;51.072;6.678;2023-03-14T10:30:38;229.30;;;221.20;;
3000;SDS011;1510;51.072;6.678;2023-03-14T10:33:11;333.47;;;320.70;;
3000;SDS011;1510;51.072;6.678;2023-03-14T10:35:46;270.03;;;259.93;;
3000;SDS011;1510;51.072;6.678;2023-03-14T10:38:19;268.40;;;258.23;;
3000;SDS011;1510;51.072;6.678;2023-03-14T10:40:50;393.93;;;378.00;;
3000;SDS011;1510;51.072;6.678;2023-03-14T10:43:21;352.40;;;338.27;;
3000;SDS011;1510;51.072;6.678;2023-03-14T10:45:54;376.90;;;361.80;;
3000;SDS011;1510;51.072;6.678;2023-03-14T10:48:28;316.67;;;304.53;;
3000;SDS011;1510;51.072;6.678;2023-03-14T10:50:57;339.43;;;326.13;;
3000;SDS011;1510;51.072;6.678;2023-03-14T10:53:32;376.07;;;361.67;;
3000;SDS011;1510;51.072;6.678;2023-03-14T10:56:02;329.70;;;317.80;;
3000;SDS011;1510;51.072;6.678;2023-03-14T10:58:33;278.93;;;269.57;;
3000;SDS011;1510;51.072;6.678;2023-03-14T11:01:09;315.70;;;304.90;;
3000;SDS011;1510;51.072;6.678;2023-03-14T11:03:47;305.37;;;294.73;;
3000;SDS011;1510;51.072;6.678;2023-03-14T11:06:22;245.00;;;236.63;;
3000;SDS011;1510;51.072;6.678;2023-03-14T11:08:55;215.57;;;207.77;;
3000;SDS011;1510;51.072;6.678;2023-03-14T11:11:34;36.63;;;34.93;;
3000;SDS011;1510;51.072;6.678;2023-03-14T11:14:06;17.10;;;16.20;;
3000;SDS011;1510;51.072;6.678;2023-03-14T11:16:43;7.20;;;5.83;;
3000;SDS011;1510;51.072;6.678;2023-03-14T12:01:41;52.20;;;50.30;;
3000;SDS011;1510;51.072;6.678;2023-03-14T12:04:28;30.50;;;29.30;;
3000;SDS011;1510;51.072;6.678;2023-03-14T12:07:17;36.93;;;35.53;;
3000;SDS011;1510;51.072;6.678;2023-03-14T12:09:53;30.57;;;29.37;;
3000;SDS011;1510;51.072;6.678;2023-03-14T12:12:27;35.63;;;34.23;;
3000;SDS011;1510;51.072;6.678;2023-03-14T12:14:58;44.27;;;42.67;;
3000;SDS011;1510;51.072;6.678;2023-03-14T12:17:35;58.77;;;56.67;;
3000;SDS011;1510;51.072;6.678;2023-03-14T12:20:05;63.73;;;61.43;;
3000;SDS011;1510;51.072;6.678;2023-03-14T12:28:04;46.50;;;44.80;;
3000;SDS011;1510;51.072;6.678;2023-03-14T12:30:51;42.87;;;41.27;;
3000;SDS011;1510;51.072;6.678;2023-03-14T12:33:29;43.53;;;41.93;;
3000;SDS011;1510;51.072;6.678;2023-03-14T12:36:11;39.33;;;37.83;;
3000;SDS011;1510;51.072;6.678;2023-03-14T12:39:20;48.57;;;46.77;;
3000;SDS011;1510;51.072;6.678;2023-03-14T12:42:14;57.60;;;55.50;;
3000;SDS011;1510;51.072;6.678;2023-03-14T12:44:47;59.83;;;57.67;;
3000;SDS011;1510;51.072;6.678;2023-03-14T12:50:29;138.03;;;133.53;;
3000;SDS011;1510;51.072;6.678;2023-03-14T12:59:35;39.50;;;37.60;;
3000;SDS011;1510;51.072;6.678;2023-03-14T13:05:04;17.83;;;16.50;;
3000;SDS011;1510;51.072;6.678;2023-03-14T13:10:42;7.83;;;2.23;;
3000;SDS011;1510;51.072;6.678;2023-03-14T13:13:19;9.30;;;2.60;;
3000;SDS011;1510;51.072;6.678;2023-03-14T13:15:49;7.93;;;1.80;;
3000;SDS011;1510;51.072;6.678;2023-03-14T13:18:24;8.03;;;2.40;;
3000;SDS011;1510;51.072;6.678;2023-03-14T13:21:02;13.53;;;4.80;;
3000;SDS011;1510;51.072;6.678;2023-03-14T13:24:01;6.00;;;3.23;;
3000;SDS011;1510;51.072;6.678;2023-03-14T14:01:50;28.00;;;18.50;;
3000;SDS011;1510;51.072;6.678;2023-03-14T14:04:24;28.67;;;27.17;;
3000;SDS011;1510;51.072;6.678;2023-03-14T14:07:05;27.23;;;18.93;;
3000;SDS011;1510;51.072;6.678;2023-03-14T14:09:42;11.20;;;8.63;;
3000;SDS011;1510;51.072;6.678;2023-03-14T14:12:16;9.53;;;4.60;;
3000;SDS011;1510;51.072;6.678;2023-03-14T14:14:51;9.50;;;6.07;;
3000;SDS011;1510;51.072;6.678;2023-03-14T14:17:35;11.63;;;4.87;;
3000;SDS011;1510;51.072;6.678;2023-03-14T14:33:18;22.80;;;6.00;;
3000;SDS011;1510;51.072;6.678;2023-03-14T14:35:55;7.10;;;3.50;;
3000;SDS011;1510;51.072;6.678;2023-03-14T14:38:24;12.57;;;3.97;;
3000;SDS011;1510;51.072;6.678;2023-03-14T14:40:52;11.63;;;4.00;;
3000;SDS011;1510;51.072;6.678;2023-03-14T14:43:23;18.03;;;4.73;;
3000;SDS011;1510;51.072;6.678;2023-03-14T14:45:53;21.10;;;4.10;;
3000;SDS011;1510;51.072;6.678;2023-03-14T14:48:24;18.10;;;3.30;;
3000;SDS011;1510;51.072;6.678;2023-03-14T14:50:58;24.03;;;4.40;;
3000;SDS011;1510;51.072;6.678;2023-03-14T14:53:28;27.07;;;3.40;;
3000;SDS011;1510;51.072;6.678;2023-03-14T14:56:04;11.23;;;2.37;;
3000;SDS011;1510;51.072;6.678;2023-03-14T14:58:34;10.43;;;2.60;;
3000;SDS011;1510;51.072;6.678;2023-03-14T15:01:04;7.67;;;1.60;;
3000;SDS011;1510;51.072;6.678;2023-03-14T15:03:36;10.70;;;2.40;;
3000;SDS011;1510;51.072;6.678;2023-03-14T15:06:03;17.50;;;3.23;;
3000;SDS011;1510;51.072;6.678;2023-03-14T15:08:31;14.07;;;2.30;;
3000;SDS011;1510;51.072;6.678;2023-03-14T15:10:58;7.60;;;1.70;;
3000;SDS011;1510;51.072;6.678;2023-03-14T15:13:25;9.70;;;1.87;;
3000;SDS011;1510;51.072;6.678;2023-03-14T15:15:52;18.30;;;3.33;;
3000;SDS011;1510;51.072;6.678;2023-03-14T15:18:22;16.85;;;3.20;;
3000;SDS011;1510;51.072;6.678;2023-03-14T15:20:51;20.20;;;2.73;;
3000;SDS011;1510;51.072;6.678;2023-03-14T15:23:21;11.70;;;2.40;;
3000;SDS011;1510;51.072;6.678;2023-03-14T15:25:49;15.50;;;3.73;;
3000;SDS011;1510;51.072;6.678;2023-03-14T15:28:16;10.23;;;2.50;;
3000;SDS011;1510;51.072;6.678;2023-03-14T15:30:45;11.10;;;2.50;;
3000;SDS011;1510;51.072;6.678;2023-03-14T15:33:12;9.43;;;1.60;;
3000;SDS011;1510;51.072;6.678;2023-03-14T15:35:39;17.43;;;2.90;;
3000;SDS011;1510;51.072;6.678;2023-03-14T15:38:17;9.47;;;1.77;;
3000;SDS011;1510;51.072;6.678;2023-03-14T15:40:47;14.17;;;2.07;;
3000;SDS011;1510;51.072;6.678;2023-03-14T15:43:15;8.80;;;3.10;;
3000;SDS011;1510;51.072;6.678;2023-03-14T15:45:43;6.50;;;1.80;;
3000;SDS011;1510;51.072;6.678;2023-03-14T15:48:11;6.50;;;1.63;;
3000;SDS011;1510;51.072;6.678;2023-03-14T15:50:43;4.60;;;1.23;;
3000;SDS011;1510;51.072;6.678;2023-03-14T15:53:10;7.37;;;1.40;;
3000;SDS011;1510;51.072;6.678;2023-03-14T15:55:39;8.85;;;1.70;;
3000;SDS011;1510;51.072;6.678;2023-03-14T15:58:05;6.80;;;2.30;;
3000;SDS011;1510;51.072;6.678;2023-03-14T16:00:37;7.37;;;1.50;;
3000;SDS011;1510;51.072;6.678;2023-03-14T16:03:03;10.07;;;1.77;;
3000;SDS011;1510;51.072;6.678;2023-03-14T16:05:30;7.30;;;1.30;;
3000;SDS011;1510;51.072;6.678;2023-03-14T16:07:57;5.63;;;1.50;;
3000;SDS011;1510;51.072;6.678;2023-03-14T16:10:26;9.77;;;1.80;;
3000;SDS011;1510;51.072;6.678;2023-03-14T16:12:54;6.00;;;1.80;;
3000;SDS011;1510;51.072;6.678;2023-03-14T16:15:24;5.90;;;1.60;;
3000;SDS011;1510;51.072;6.678;2023-03-14T16:17:52;5.90;;;1.63;;
3000;SDS011;1510;51.072;6.678;2023-03-14T16:20:19;6.97;;;1.70;;
3000;SDS011;1510;51.072;6.678;2023-03-14T16:22:46;6.77;;;1.43;;
3000;SDS011;1510;51.072;6.678;2023-03-14T16:25:13;7.33;;;1.30;;
3000;SDS011;1510;51.072;6.678;2023-03-14T16:27:42;5.77;;;1.73;;
3000;SDS011;1510;51.072;6.678;2023-03-14T16:30:14;5.30;;;1.00;;
3000;SDS011;1510;51.072;6.678;2023-03-14T16:32:44;4.10;;;1.20;;
3000;SDS011;1510;51.072;6.678;2023-03-14T16:35:13;9.03;;;2.53;;
3000;SDS011;1510;51.072;6.678;2023-03-14T16:37:42;7.03;;;1.03;;
3000;SDS011;1510;51.072;6.678;2023-03-14T16:40:12;4.73;;;1.23;;
3000;SDS011;1510;51.072;6.678;2023-03-14T16:42:39;7.47;;;1.83;;
3000;SDS011;1510;51.072;6.678;2023-03-14T16:45:06;5.93;;;1.10;;
3000;SDS011;1510;51.072;6.678;2023-03-14T16:47:42;7.77;;;1.30;;
3000;SDS011;1510;51.072;6.678;2023-03-14T16:50:09;4.63;;;1.20;;
3000;SDS011;1510;51.072;6.678;2023-03-14T16:52:36;8.30;;;1.10;;
3000;SDS011;1510;51.072;6.678;2023-03-14T16:55:03;4.63;;;1.20;;
3000;SDS011;1510;51.072;6.678;2023-03-14T16:57:31;7.60;;;1.60;;
3000;SDS011;1510;51.072;6.678;2023-03-14T16:59:58;8.67;;;2.10;;
3000;SDS011;1510;51.072;6.678;2023-03-14T17:02:25;8.57;;;1.60;;
3000;SDS011;1510;51.072;6.678;2023-03-14T17:04:53;8.23;;;1.40;;
3000;SDS011;1510;51.072;6.678;2023-03-14T17:07:21;4.43;;;1.07;;
3000;SDS011;1510;51.072;6.678;2023-03-14T17:09:48;10.20;;;1.90;;
3000;SDS011;1510;51.072;6.678;2023-03-14T17:12:15;9.53;;;2.30;;
3000;SDS011;1510;51.072;6.678;2023-03-14T17:14:45;4.87;;;1.57;;
3000;SDS011;1510;51.072;6.678;2023-03-14T17:17:15;12.17;;;2.33;;
3000;SDS011;1510;51.072;6.678;2023-03-14T17:19:44;16.03;;;2.07;;
3000;SDS011;1510;51.072;6.678;2023-03-14T17:22:12;7.77;;;2.07;;
3000;SDS011;1510;51.072;6.678;2023-03-14T17:24:39;7.63;;;1.70;;
3000;SDS011;1510;51.072;6.678;2023-03-14T17:27:06;4.73;;;1.50;;
3000;SDS011;1510;51.072;6.678;2023-03-14T17:29:34;16.40;;;2.77;;
3000;SDS011;1510;51.072;6.678;2023-03-14T17:32:01;7.27;;;1.87;;
3000;SDS011;1510;51.072;6.678;2023-03-14T17:34:28;6.00;;;1.30;;
3000;SDS011;1510;51.072;6.678;2023-03-14T17:36:56;8.53;;;1.63;;
3000;SDS011;1510;51.072;6.678;2023-03-14T17:39:24;9.30;;;1.87;;
3000;SDS011;1510;51.072;6.678;2023-03-14T17:41:51;38.63;;;3.20;;
3000;SDS011;1510;51.072;6.678;2023-03-14T17:44:18;11.40;;;2.27;;
3000;SDS011;1510;51.072;6.678;2023-03-14T17:46:46;11.53;;;1.83;;
3000;SDS011;1510;51.072;6.678;2023-03-14T17:49:13;5.77;;;1.70;;
3000;SDS011;1510;51.072;6.678;2023-03-14T17:51:40;8.27;;;2.07;;
3000;SDS011;1510;51.072;6.678;2023-03-14T17:54:07;10.60;;;2.20;;
3000;SDS011;1510;51.072;6.678;2023-03-14T17:56:35;7.63;;;2.10;;
3000;SDS011;1510;51.072;6.678;2023-03-14T17:59:02;13.07;;;2.20;;
3000;SDS011;1510;51.072;6.678;2023-03-14T18:01:29;22.40;;;2.63;;
3000;SDS011;1510;51.072;6.678;2023-03-14T18:03:56;9.27;;;1.60;;
3000;SDS011;1510;51.072;6.678;2023-03-14T18:06:23;7.03;;;1.57;;
3000;SDS011;1510;51.072;6.678;2023-03-14T18:08:51;11.63;;;2.43;;
3000;SDS011;1510;51.072;6.678;2023-03-14T18:11:20;11.40;;;1.87;;
3000;SDS011;1510;51.072;6.678;2023-03-14T18:13:49;9.20;;;1.83;;
3000;SDS011;1510;51.072;6.678;2023-03-14T18:16:16;6.20;;;2.03;;
3000;SDS011;1510;51.072;6.678;2023-03-14T18:18:45;7.80;;;2.33;;
3000;SDS011;1510;51.072;6.678;2023-03-14T18:21:15;5.20;;;1.20;;
3000;SDS011;1510;51.072;6.678;2023-03-14T18:23:42;6.07;;;2.17;;
3000;SDS011;1510;51.072;6.678;2023-03-14T18:26:09;10.93;;;1.87;;
3000;SDS011;1510;51.072;6.678;2023-03-14T18:28:37;15.57;;;1.80;;
3000;SDS011;1510;51.072;6.678;2023-03-14T18:31:06;6.63;;;2.70;;
3000;SDS011;1510;51.072;6.678;2023-03-14T18:33:35;11.03;;;2.20;;
3000;SDS011;1510;51.072;6.678;2023-03-14T18:36:04;8.13;;;2.00;;
3000;SDS011;1510;51.072;6.678;2023-03-14T18:38:32;7.33;;;1.70;;
3000;SDS011;1510;51.072;6.678;2023-03-14T18:41:03;7.67;;;1.53;;
3000;SDS011;1510;51.072;6.678;2023-03-14T18:43:30;10.80;;;2.83;;
3000;SDS011;1510;51.072;6.678;2023-03-14T18:45:58;10.33;;;1.60;;
3000;SDS011;1510;51.072;6.678;2023-03-14T18:48:26;14.37;;;2.83;;
3000;SDS011;1510;51.072;6.678;2023-03-14T18:50:54;10.33;;;1.93;;
3000;SDS011;1510;51.072;6.678;2023-03-14T18:53:22;15.97;;;1.87;;
3000;SDS011;1510;51.072;6.678;2023-03-14T18:55:55;5.90;;;1.70;;
3000;SDS011;1510;51.072;6.678;2023-03-14T18:58:22;5.43;;;1.50;;
3000;SDS011;1510;51.072;6.678;2023-03-14T19:00:54;10.77;;;2.40;;
3000;SDS011;1510;51.072;6.678;2023-03-14T19:03:21;6.83;;;1.30;;
3000;SDS011;1510;51.072;6.678;2023-03-14T19:05:51;8.00;;;1.93;;
3000;SDS011;1510;51.072;6.678;2023-03-14T19:08:18;10.07;;;1.80;;
3000;SDS011;1510;51.072;6.678;2023-03-14T19:10:47;7.80;;;1.50;;
3000;SDS011;1510;51.072;6.678;2023-03-14T19:13:14;7.50;;;1.37;;
3000;SDS011;1510;51.072;6.678;2023-03-14T19:15:41;7.97;;;1.90;;
3000;SDS011;1510;51.072;6.678;2023-03-14T19:18:08;7.87;;;2.53;;
3000;SDS011;1510;51.072;6.678;2023-03-14T19:20:35;18.40;;;2.33;;
3000;SDS011;1510;51.072;6.678;2023-03-14T19:23:04;19.70;;;3.10;;
3000;SDS011;1510;51.072;6.678;2023-03-14T19:25:31;6.20;;;1.40;;
3000;SDS011;1510;51.072;6.678;2023-03-14T19:27:58;16.03;;;2.60;;
3000;SDS011;1510;51.072;6.678;2023-03-14T19:30:26;14.10;;;2.90;;
3000;SDS011;1510;51.072;6.678;2023-03-14T19:32:54;7.83;;;1.90;;
3000;SDS011;1510;51.072;6.678;2023-03-14T19:35:21;13.90;;;3.10;;
3000;SDS011;1510;51.072;6.678;2023-03-14T19:37:47;11.50;;;2.33;;
3000;SDS011;1510;51.072;6.678;2023-03-14T19:40:16;12.03;;;2.50;;
3000;SDS011;1510;51.072;6.678;2023-03-14T19:42:45;6.43;;;1.90;;